Terminal Aerodrome Forecast
Issued by NWS

Home | Current Version | Previous Version | Text Only | Print | Product List | Glossary On
Versions: 1 2 3 4 5 6 7 8 9 10 11 12 13 14 15 16 17 18 19
110
FTUS43 KJKL 242339
TAFSME
TAF
KSME 242339Z 2500/2524 32005KT P6SM VCSH SCT015 OVC035
     FM250200 VRB04KT P6SM VCSH OVC015
     FM250400 32004KT P6SM VCSH OVC008
     FM251000 32005KT 4SM BR VCSH OVC008
     FM251300 33005KT P6SM VCSH SCT008 BKN015
     FM252200 33006KT P6SM BKN025=

USA.gov is the U.S. government's official web portal to all federal, state and local government web resources and services.